createdAt,value
2022-08-14T00:01:43.068Z,7.57
2022-08-14T00:06:56.437Z,11.18
2022-08-14T00:11:58.752Z,11.18
2022-08-14T00:17:00.939Z,8.40
2022-08-14T00:22:03.323Z,7.78
2022-08-14T00:27:06.804Z,7.82
2022-08-14T00:32:52.106Z,11.35
2022-08-14T00:37:31.980Z,13.00
2022-08-14T00:42:55.194Z,8.82
2022-08-14T00:47:55.544Z,10.15
2022-08-14T00:53:00.438Z,8.70
2022-08-14T00:58:01.894Z,8.77
2022-08-14T01:03:06.754Z,8.90
2022-08-14T01:08:24.575Z,8.82
2022-08-14T01:13:42.060Z,10.05
2022-08-14T01:18:44.604Z,8.88
2022-08-14T01:23:59.918Z,9.77
2022-08-14T01:29:04.764Z,9.82
2022-08-14T01:35:19.346Z,9.75
2022-08-14T01:39:28.850Z,11.80
2022-08-14T01:44:34.400Z,10.20
2022-08-14T01:49:59.062Z,9.73
2022-08-14T01:54:58.451Z,9.40
2022-08-14T02:00:00.283Z,8.48
2022-08-14T02:05:05.132Z,10.00
2022-08-14T02:10:13.043Z,10.02
2022-08-14T02:15:17.119Z,10.00
2022-08-14T02:20:20.507Z,9.05
2022-08-14T02:25:29.714Z,11.18
2022-08-14T02:30:31.602Z,10.15
2022-08-14T02:35:33.294Z,9.35
2022-08-14T02:40:42.264Z,9.85
2022-08-14T02:45:47.710Z,10.70
2022-08-14T02:50:51.610Z,9.50
2022-08-14T02:55:55.016Z,9.55
2022-08-14T03:00:59.959Z,10.43
2022-08-14T03:06:09.111Z,10.05
2022-08-14T03:11:13.032Z,12.38
2022-08-14T03:16:20.130Z,12.93
2022-08-14T03:21:28.723Z,11.68
2022-08-14T03:26:32.695Z,9.57
2022-08-14T03:31:34.566Z,14.07
2022-08-14T03:37:38.144Z,9.65
2022-08-14T03:42:00.010Z,14.05
2022-08-14T03:47:03.633Z,12.73
2022-08-14T03:52:17.915Z,11.70
2022-08-14T03:57:26.550Z,10.27
2022-08-14T04:02:46.733Z,10.00
2022-08-14T04:07:49.787Z,10.65
2022-08-14T04:13:03.222Z,10.32
2022-08-14T04:18:05.864Z,12.00
2022-08-14T04:23:18.423Z,9.63
2022-08-14T04:29:01.466Z,11.25
2022-08-14T04:33:46.685Z,10.15
2022-08-14T04:38:48.786Z,9.63
2022-08-14T04:43:50.226Z,10.88
2022-08-14T04:48:59.965Z,12.48
2022-08-14T04:54:01.817Z,10.30
2022-08-14T04:59:10.488Z,15.73
2022-08-14T05:04:14.720Z,11.73
2022-08-14T05:09:17.995Z,12.65
2022-08-14T05:14:46.086Z,11.50
2022-08-14T05:19:45.031Z,11.50
2022-08-14T05:25:03.615Z,11.43
2022-08-14T05:30:06.861Z,11.35
2022-08-14T05:35:09.935Z,11.70
2022-08-14T05:40:12.142Z,12.85
2022-08-14T05:45:14.012Z,11.55
2022-08-14T05:50:17.438Z,10.38
2022-08-14T05:55:22.568Z,12.48
2022-08-14T06:00:31.730Z,12.18
2022-08-14T06:05:39.184Z,12.45
2022-08-14T06:10:40.765Z,13.35
2022-08-14T06:15:44.691Z,11.02
2022-08-14T06:20:46.939Z,11.43
2022-08-14T06:25:53.375Z,11.32
2022-08-14T06:30:55.767Z,11.40
2022-08-14T06:35:57.286Z,11.05
2022-08-14T06:40:59.234Z,12.70
2022-08-14T06:46:01.480Z,11.57
2022-08-14T06:51:04.711Z,12.48
2022-08-14T06:56:07.207Z,10.95
2022-08-14T07:01:08.663Z,10.27
2022-08-14T07:06:21.393Z,11.63
2022-08-14T07:11:34.464Z,10.68
2022-08-14T07:16:36.449Z,9.40
2022-08-14T07:21:38.475Z,11.48
2022-08-14T07:26:41.053Z,9.70
2022-08-14T07:31:42.589Z,10.48
2022-08-14T07:36:57.949Z,10.57
2022-08-14T07:42:02.482Z,10.73
2022-08-14T07:47:05.290Z,10.13
2022-08-14T07:52:07.031Z,9.65
2022-08-14T07:57:12.678Z,8.90
2022-08-14T08:02:27.752Z,10.48
2022-08-14T08:07:31.138Z,9.95
2022-08-14T08:12:34.280Z,9.70
2022-08-14T08:17:38.980Z,9.65
2022-08-14T08:22:48.379Z,9.98
2022-08-14T08:28:21.777Z,10.63
2022-08-14T08:33:25.783Z,11.20
2022-08-14T08:39:17.659Z,10.10
2022-08-14T08:44:05.509Z,8.48
2022-08-14T08:49:07.256Z,9.70
2022-08-14T08:54:20.043Z,9.85
2022-08-14T08:59:31.616Z,10.25
2022-08-14T09:04:45.416Z,11.70
2022-08-14T09:09:59.293Z,9.43
2022-08-14T09:15:04.241Z,14.77
2022-08-14T09:20:13.219Z,8.60
2022-08-14T09:26:00.756Z,14.38
2022-08-14T09:30:54.633Z,8.63
2022-08-14T09:36:18.480Z,8.30
2022-08-14T09:42:17.615Z,9.32
2022-08-14T09:46:53.640Z,7.63
2022-08-14T09:52:04.067Z,8.13
2022-08-14T09:57:30.849Z,9.13
2022-08-14T10:02:34.476Z,6.90
2022-08-14T10:07:47.698Z,6.75
2022-08-14T10:12:58.265Z,8.18
2022-08-14T10:18:19.321Z,6.80
2022-08-14T10:23:24.953Z,9.40
2022-08-14T10:29:18.984Z,19.98
2022-08-14T10:34:13.405Z,9.75
2022-08-14T10:39:21.953Z,8.50
2022-08-14T10:44:24.149Z,9.02
2022-08-14T10:49:26.139Z,6.35
2022-08-14T10:54:42.147Z,6.95
2022-08-14T10:59:55.669Z,7.15
2022-08-14T11:05:00.874Z,6.50
2022-08-14T11:10:12.736Z,7.35
2022-08-14T11:15:16.650Z,7.03
2022-08-14T11:20:23.958Z,6.07
2022-08-14T11:25:36.736Z,7.63
2022-08-14T11:30:50.242Z,6.30
2022-08-14T11:35:53.896Z,7.18
2022-08-14T11:41:12.737Z,5.95
2022-08-14T11:46:29.769Z,6.15
2022-08-14T11:51:53.569Z,6.85
2022-08-14T11:56:56.336Z,7.38
2022-08-14T12:03:00.878Z,5.30
2022-08-14T12:07:48.560Z,5.50
2022-08-14T12:12:50.931Z,6.30
2022-08-14T12:17:53.230Z,6.28
2022-08-14T12:22:57.683Z,7.28
2022-08-14T12:28:10.195Z,5.68
2022-08-14T12:33:35.878Z,5.88
2022-08-14T12:38:41.007Z,6.07
2022-08-14T12:43:52.756Z,5.38
2022-08-14T12:48:56.340Z,9.23
2022-08-14T12:54:00.031Z,7.05
2022-08-14T12:59:02.277Z,6.95
2022-08-14T13:04:07.622Z,6.68
2022-08-14T13:09:14.991Z,7.28
2022-08-14T13:14:26.398Z,7.88
2022-08-14T13:19:32.984Z,6.28
2022-08-14T13:24:37.528Z,6.45
2022-08-14T13:29:46.881Z,7.18
2022-08-14T13:34:49.051Z,6.88
2022-08-14T13:39:56.699Z,6.47
2022-08-14T13:45:01.348Z,6.82
2022-08-14T13:50:06.085Z,5.88
2022-08-14T13:55:09.028Z,6.13
2022-08-14T14:00:17.854Z,6.53
2022-08-14T14:05:20.091Z,6.10
2022-08-14T14:10:28.179Z,6.32
2022-08-14T14:15:48.329Z,5.90
2022-08-14T14:20:54.548Z,5.70
2022-08-14T14:25:56.924Z,6.00
2022-08-14T14:31:06.150Z,6.97
2022-08-14T14:36:11.420Z,6.40
2022-08-14T14:41:16.547Z,5.90
2022-08-14T14:46:19.924Z,7.25
2022-08-14T14:51:21.606Z,5.30
2022-08-14T14:56:47.980Z,4.53
2022-08-14T15:01:49.687Z,5.72
2022-08-14T15:06:53.162Z,5.25
2022-08-14T15:11:54.862Z,6.78
2022-08-14T15:16:59.126Z,5.45
2022-08-14T15:22:02.015Z,5.68
2022-08-14T15:27:03.459Z,5.72
2022-08-14T15:32:08.828Z,5.05
2022-08-14T15:37:16.457Z,5.55
2022-08-14T15:42:18.249Z,6.38
2022-08-14T15:47:23.322Z,4.95
2022-08-14T15:52:32.826Z,5.05
2022-08-14T15:57:37.273Z,5.20
2022-08-14T16:02:38.780Z,6.10
2022-08-14T16:07:40.218Z,9.45
2022-08-14T16:12:47.380Z,5.95
2022-08-14T16:17:49.592Z,7.40
2022-08-14T16:23:10.413Z,5.20
2022-08-14T16:28:26.957Z,5.72
2022-08-14T16:33:59.880Z,7.50
2022-08-14T16:38:54.027Z,7.72
2022-08-14T16:44:21.484Z,7.05
2022-08-14T16:49:23.486Z,7.15
2022-08-14T16:54:35.140Z,8.15
2022-08-14T16:59:52.225Z,9.00
2022-08-14T17:05:22.965Z,6.95
2022-08-14T17:10:27.896Z,9.82
2022-08-14T17:15:29.838Z,12.20
2022-08-14T17:20:53.046Z,7.28
2022-08-14T17:25:52.864Z,7.07
2022-08-14T17:30:59.686Z,7.75
2022-08-14T17:36:21.073Z,8.52
2022-08-14T17:47:04.180Z,6.38
2022-08-14T17:52:18.279Z,6.82
2022-08-14T17:57:22.581Z,7.82
2022-08-14T18:02:30.873Z,8.35
2022-08-14T18:08:00.010Z,7.57
2022-08-14T18:12:55.459Z,8.35
2022-08-14T18:17:58.379Z,8.02
2022-08-14T18:23:00.569Z,8.48
2022-08-14T18:28:16.081Z,6.93
2022-08-14T18:33:21.758Z,7.70
2022-08-14T18:38:45.685Z,8.30
2022-08-14T18:43:59.079Z,8.45
2022-08-14T18:49:15.385Z,8.02
2022-08-14T18:54:29.989Z,7.47
2022-08-14T18:59:39.281Z,6.90
2022-08-14T19:04:41.923Z,7.45
2022-08-14T19:10:04.459Z,8.63
2022-08-14T19:15:10.195Z,7.57
2022-08-14T19:20:16.289Z,8.25
2022-08-14T19:25:56.308Z,7.70
2022-08-14T19:31:42.428Z,8.15
2022-08-14T19:37:05.271Z,8.10
2022-08-14T19:42:10.232Z,10.73
2022-08-14T19:47:13.167Z,9.93
2022-08-14T19:52:20.603Z,10.73
2022-08-14T19:57:29.217Z,10.32
2022-08-14T20:02:31.104Z,13.77
2022-08-14T20:07:58.984Z,10.75
2022-08-14T20:13:11.780Z,13.10
2022-08-14T20:18:46.022Z,11.02
2022-08-14T20:23:38.156Z,11.07
2022-08-14T20:28:40.422Z,12.68
2022-08-14T20:34:07.999Z,11.95
2022-08-14T20:39:26.726Z,10.02
2022-08-14T20:44:43.247Z,12.35
2022-08-14T20:49:45.547Z,11.00
2022-08-14T20:54:50.236Z,12.07
2022-08-14T20:59:53.178Z,8.82
2022-08-14T21:05:00.670Z,9.05
2022-08-14T21:10:33.475Z,9.82
2022-08-14T21:15:35.510Z,9.63
2022-08-14T21:20:37.475Z,9.80
2022-08-14T21:25:42.544Z,10.02
2022-08-14T21:30:51.699Z,9.05
2022-08-14T21:35:57.038Z,9.13
2022-08-14T21:41:02.518Z,8.45
2022-08-14T21:46:24.083Z,10.45
2022-08-14T21:51:55.928Z,9.18
2022-08-14T21:56:57.588Z,9.07
2022-08-14T22:02:03.434Z,9.40
2022-08-14T22:07:16.789Z,9.05
2022-08-14T22:12:57.432Z,8.27
2022-08-14T22:17:40.612Z,9.77
2022-08-14T22:22:46.276Z,9.00
2022-08-14T22:27:56.303Z,9.27
2022-08-14T22:33:00.212Z,10.18
2022-08-14T22:38:34.634Z,10.10
2022-08-14T22:43:23.353Z,9.65
2022-08-14T22:48:24.887Z,8.65
2022-08-14T22:53:30.960Z,10.70
2022-08-14T22:58:34.863Z,9.90
2022-08-14T23:03:36.702Z,10.30
2022-08-14T23:08:58.839Z,10.52
2022-08-14T23:14:00.923Z,10.32
2022-08-14T23:19:03.932Z,10.25
2022-08-14T23:24:06.250Z,8.90
2022-08-14T23:29:07.665Z,10.68
2022-08-14T23:34:13.810Z,8.90
2022-08-14T23:39:30.025Z,10.63
2022-08-14T23:44:35.187Z,9.20
2022-08-14T23:49:49.641Z,9.57
2022-08-14T23:55:01.249Z,8.57
